Norwegian Jade — C6WK7 — position and weather

sailwx.info

Track history (hours):
 
Tides and Currents Weather Stations Pressure Air Temp Water Temp Dewpoint Dewpoint Depression Visibility Wind Speed Wind Dir Waves Ship Positions

Norwegian Jade

Last reported at 2014-Nov-27 15:27 UTC. Time now 2014-Nov-27 16:05 UTC.
Position N 39°27' W 000°19'.

Length 294 m; draft 8.6 m.

Type: Ship. MMSI: 308416000.

Date/timePositionNaut miles runAvg speedWind from/ knotsBaromVisibWave heightAir tempDewpointWater temp
2014-Nov-27 15:27N 39°27' W 000°19'0 0.0
2014-Nov-27 14:33N 39°27' W 000°19'0 0.0
2014-Nov-27 09:33N 39°27' W 000°19'0 0.2
2014-Nov-27 06:34N 39°27' W 000°19'6 6.4
2014-Nov-27 05:33N 39°27' W 000°11'12 8.0
2014-Nov-27 04:00N 39°36' E 000°00'2612.9 360 / 101007.0 15.0 19.0
2014-Nov-27 02:00N 39°54' E 000°24'1220.3 330 / 41008.0 5.4 17.014.019.0
2014-Nov-27 01:24N 40°02' E 000°36'2 5.6
2014-Nov-27 01:00N 40°00' E 000°36'1422.2 200 / 81008.0 5.4 17.014.019.0
2014-Nov-27 00:23N 40°11' E 000°47'615.2
2014-Nov-27 00:00N 40°06' E 000°42'1635.8 210 / 111009.0 5.4 17.014.018.0
2014-Nov-26 23:33N 40°17' E 000°56'3 5.2
2014-Nov-26 23:00N 40°18' E 001°00'1021.8 200 / 111010.0 5.4 17.014.018.0
2014-Nov-26 22:33N 40°25' E 001°08'1211.6
2014-Nov-26 21:33N 40°33' E 001°19'1212.1
2014-Nov-26 20:34N 40°41' E 001°31'1211.7
2014-Nov-26 19:33N 40°49' E 001°43'1211.8
2014-Nov-26 18:33N 40°57' E 001°54'1211.7
2014-Nov-26 17:33N 41°06' E 002°05'1211.8
2014-Nov-26 16:29N 41°17' E 002°10'3 0.3
2014-Nov-26 06:22N 41°21' E 002°10'7 8.5
2014-Nov-26 05:32N 41°17' E 002°18'3115.3
2014-Nov-26 03:31N 41°28' E 002°56'4 6.7
2014-Nov-26 03:00N 41°30' E 003°00'1125.8 350 / 31013.0 17.0 19.0
2014-Nov-26 02:33N 41°36' E 003°13'4 7.0
2014-Nov-26 02:00N 41°36' E 003°18'1227.6 300 / 31014.0 5.4 17.014.018.0
2014-Nov-26 01:33N 41°45' E 003°29'610.8
2014-Nov-26 01:00N 41°48' E 003°36'921.3 250 / 61014.0 5.4 18.015.018.0
2014-Nov-26 00:33N 41°53' E 003°46'2 2.7
2014-Nov-26 00:00N 41°54' E 003°48'1429.6 240 / 81015.0 5.4 18.015.018.0
2014-Nov-25 23:32N 42°02' E 004°03'1514.9
2014-Nov-25 22:33N 42°10' E 004°19'4 7.3
2014-Nov-25 22:00N 42°12' E 004°24'1125.4 230 / 31016.0 2.2 17.0 18.0
2014-Nov-25 21:33N 42°19' E 004°36'1515.1
2014-Nov-25 20:33N 42°27' E 004°53'3614.8
2014-Nov-25 18:09N 42°48' E 005°32'318.0
2014-Nov-25 18:00N 42°48' E 005°36'715.8 190 / 181017.0 18.0 18.0
2014-Nov-25 17:33N 42°53' E 005°42'5 8.0
2014-Nov-25 17:00N 42°54' E 005°48'1126.5 180 / 201017.0 16.7 18.0
2014-Nov-25 16:34N 43°03' E 005°58'5 4.9
2014-Nov-25 15:33N 43°06' E 005°54'0 0.0
2014-Nov-25 14:32N 43°06' E 005°54'0 0.0
2014-Nov-25 13:32N 43°06' E 005°54'0 0.0
2014-Nov-25 12:31N 43°06' E 005°54'0 0.0
2014-Nov-25 11:31N 43°06' E 005°54'0 0.0
2014-Nov-25 10:34N 43°06' E 005°54'0 0.0
2014-Nov-25 09:33N 43°06' E 005°54'0 0.0
2014-Nov-25 08:33N 43°06' E 005°54'0 0.0
2014-Nov-25 07:32N 43°06' E 005°54'0 0.0
2014-Nov-25 06:33N 43°06' E 005°54'4 4.4
2014-Nov-25 05:33N 43°04' E 005°59'1111.0
2014-Nov-25 04:34N 42°53' E 006°02'6 9.9
2014-Nov-25 04:00N 42°48' E 006°00'716.7 120 / 181018.0 17.0 18.0
2014-Nov-25 03:33N 42°43' E 006°07'1110.5
2014-Nov-25 02:33N 42°34' E 006°14'5 8.5
2014-Nov-25 02:00N 42°30' E 006°18'918.4 110 / 101018.0 5.4 18.015.018.0
2014-Nov-25 01:30N 42°33' E 006°30'3 5.2
2014-Nov-25 01:00N 42°30' E 006°30'1120.7 120 / 111019.0 5.4 18.015.018.0
2014-Nov-25 00:27N 42°32' E 006°45'3 5.8
2014-Nov-25 00:00N 42°30' E 006°48'1316.6 120 / 121019.0 5.4 18.015.018.0
2014-Nov-24 23:13N 42°40' E 006°58'523.6
2014-Nov-24 23:00N 42°36' E 006°54'1228.7 100 / 151020.0 5.4 18.015.018.0
2014-Nov-24 22:33N 42°46' E 007°04'6241102.0
2014-Nov-24 22:00N 42°48' W 007°06'6311456.1 090 / 151020.0 5.4 19.0
2014-Nov-24 21:34N 42°54' E 007°14'1210.3
2014-Nov-24 20:24N 43°03' E 007°25'22 9.5
2014-Nov-24 18:04N 43°24' E 007°33'510.4
2014-Nov-24 17:33N 43°29' E 007°32'2 3.0
2014-Nov-24 17:00N 43°30' E 007°30'1022.2 070 / 251020.0 17.0 20.0
2014-Nov-24 16:33N 43°40' E 007°28'5 0.5
2014-Nov-24 06:18N 43°44' E 007°26'5 6.4
2014-Nov-24 05:33N 43°44' E 007°32'1610.1
2014-Nov-24 04:00N 43°42' E 007°54'1912.1 060 / 281022.0 17.0 19.0
2014-Nov-24 02:26N 43°40' E 008°20'1011.1
2014-Nov-24 01:33N 43°38' E 008°33'1119.4
2014-Nov-24 01:00N 43°36' E 008°48'2 3.7 080 / 191023.0 5.4 19.016.019.0
2014-Nov-24 00:33N 43°38' E 008°48'4 7.8
2014-Nov-24 00:00N 43°36' E 008°54'614.6 110 / 111024.0 5.4 21.018.019.0
2014-Nov-23 23:33N 43°37' E 009°03'1010.4
2014-Nov-23 22:33N 43°36' E 009°17'813.5
2014-Nov-23 22:00N 43°30' E 009°24'715.5 120 / 131024.0 21.6 20.0
2014-Nov-23 21:33N 43°34' E 009°31'1010.3
2014-Nov-23 20:33N 43°33' E 009°45'1110.5
2014-Nov-23 19:33N 43°31' E 009°59'1010.4
2014-Nov-23 18:33N 43°31' E 010°14'3 3.4
2014-Nov-23 17:33N 43°33' E 010°18'0 0.0
2014-Nov-23 16:33N 43°33' E 010°18'0 0.0
2014-Nov-23 15:32N 43°33' E 010°18'0 0.0
2014-Nov-23 14:29N 43°33' E 010°18'0 0.0
2014-Nov-23 13:32N 43°33' E 010°18'0 0.0
2014-Nov-23 12:31N 43°33' E 010°18'0 0.0
2014-Nov-23 11:31N 43°33' E 010°18'0 0.0
2014-Nov-23 10:33N 43°33' E 010°18'0 0.0
2014-Nov-23 09:33N 43°33' E 010°18'0 0.0
2014-Nov-23 08:32N 43°33' E 010°18'0 0.0
2014-Nov-23 07:32N 43°33' E 010°18'0 0.0
2014-Nov-23 06:31N 43°33' E 010°18'0 0.0
2014-Nov-23 05:33N 43°33' E 010°18'6 6.5
2014-Nov-23 04:34N 43°28' E 010°13'1212.2
2014-Nov-23 03:33N 43°16' E 010°08'4 7.7
2014-Nov-23 03:00N 43°12' E 010°06'717.2 130 / 271023.0 17.0 20.0
2014-Nov-23 02:33N 43°05' E 010°05'1119.6
2014-Nov-23 02:00N 42°54' E 010°00'7 7.4 140 / 201023.0 5.4 18.015.020.0
2014-Nov-23 01:00N 42°48' E 009°54'2512.6 150 / 191023.0 5.4 20.017.020.0
2014-Nov-22 23:00N 42°30' E 010°18'7615.2 160 / 151023.0 5.4 19.016.020.0
2014-Nov-22 18:00N 41°54' E 011°48'15 0.9 170 / 171023.0 17.0 20.0
2014-Nov-22 01:00N 41°42' E 012°00'7516.4 080 / 141023.0 5.4 16.013.020.0
2014-Nov-21 20:24N 40°57' E 013°20'1416.0
2014-Nov-21 19:33N 40°48' E 013°34'1616.0
2014-Nov-21 18:33N 40°39' E 013°51'713.1
2014-Nov-21 18:00N 40°36' E 014°00'1124.5 330 / 121022.0 16.0 19.0
2014-Nov-21 17:33N 40°43' E 014°10'8 0.7
2014-Nov-21 06:20N 40°50' E 014°16'7 9.5
2014-Nov-21 05:33N 40°43' E 014°17'1716.1
2014-Nov-21 04:32N 40°27' E 014°22'2214.1
2014-Nov-21 03:00N 40°06' E 014°30'2020.2 060 / 121022.0 16.6 20.0
2014-Nov-21 02:00N 39°48' E 014°42'1312.9 080 / 41022.0 5.4 17.014.021.0
2014-Nov-21 01:00N 39°36' E 014°48'2020.2 050 / 121022.0 5.4 17.014.021.0
2014-Nov-21 00:00N 39°18' E 015°00'7214.7 090 / 41022.0 5.4 17.014.021.0
2014-Nov-20 19:03N 38°11' E 015°37'1016.5
2014-Nov-20 18:26N 38°01' E 015°35'1615.9
2014-Nov-20 17:27N 37°50' E 015°49'4016.1
2014-Nov-20 15:00N 37°36' E 016°36'16916.9 030 / 101022.0 17.0 21.0
2014-Nov-20 05:00N 36°48' E 020°00'5016.5 030 / 331019.0 18.0 22.0
2014-Nov-20 02:00N 36°36' E 021°00'2020.2 360 / 241018.0 5.4 0.518.015.022.0
2014-Nov-20 01:00N 36°30' E 021°24'1414.5 350 / 231018.0 5.4 19.016.022.0
2014-Nov-20 00:00N 36°30' E 021°42'4916.2 340 / 241018.0 5.4 19.016.022.0
2014-Nov-19 21:00N 36°24' E 022°42'4315.6 280 / 251017.0 20.2 20.0
2014-Nov-19 18:16N 36°45' E 023°28'1515.9
2014-Nov-19 17:18N 36°57' E 023°40'411.4
2014-Nov-19 17:00N 36°54' E 023°42'1527.5 200 / 281016.0 20.0 16.0
2014-Nov-19 16:27N 37°07' E 023°51'1415.8
2014-Nov-19 15:33N 37°17' E 024°04'2 3.7
2014-Nov-19 15:00N 37°18' E 024°06'1431.2 200 / 291016.0 20.0 16.0
2014-Nov-19 14:33N 37°28' E 024°17'6 9.8
2014-Nov-19 14:00N 37°30' E 024°24'1226.9 200 / 291016.0 19.0 16.0
2014-Nov-19 13:33N 37°41' E 024°28'1616.5
2014-Nov-19 12:33N 37°56' E 024°36'11916.1
2014-Nov-19 05:10N 39°44' E 025°41'950.3
2014-Nov-19 05:00N 39°36' E 025°36'7314.6 170 / 321018.0 19.0 17.0
2014-Nov-19 00:00N 40°24' E 026°48'2221.8 080 / 81018.0 5.4 16.013.016.0
2014-Nov-18 23:00N 40°36' E 027°12'1514.9 350 / 41019.0 5.4 16.013.016.0
2014-Nov-18 22:00N 40°42' E 027°30'   180 / 31019.0 5.4 17.014.016.0
Track history (hours):
 
Tides and Currents Weather Stations Pressure Air Temp Water Temp Dewpoint Dewpoint Depression Visibility Wind Speed Wind Dir Waves Ship Positions

Norwegian Jade

Last reported at 2014-Nov-27 15:27 UTC. Time now 2014-Nov-27 16:05 UTC.
Position N 39°27' W 000°19'.

Length 294 m; draft 8.6 m.

Type: Ship. MMSI: 308416000.

Date/timePositionNaut miles runAvg speedWind from/ knotsBaromVisibWave heightAir tempDewpointWater temp
2014-Nov-27 15:27N 39°27' W 000°19'0 0.0
2014-Nov-27 14:33N 39°27' W 000°19'0 0.0
2014-Nov-27 09:33N 39°27' W 000°19'0 0.2
2014-Nov-27 06:34N 39°27' W 000°19'6 6.4
2014-Nov-27 05:33N 39°27' W 000°11'12 8.0
2014-Nov-27 04:00N 39°36' E 000°00'2612.9 360 / 101007.0 15.0 19.0
2014-Nov-27 02:00N 39°54' E 000°24'1220.3 330 / 41008.0 5.4 17.014.019.0
2014-Nov-27 01:24N 40°02' E 000°36'2 5.6
2014-Nov-27 01:00N 40°00' E 000°36'1422.2 200 / 81008.0 5.4 17.014.019.0
2014-Nov-27 00:23N 40°11' E 000°47'615.2
2014-Nov-27 00:00N 40°06' E 000°42'1635.8 210 / 111009.0 5.4 17.014.018.0
2014-Nov-26 23:33N 40°17' E 000°56'3 5.2
2014-Nov-26 23:00N 40°18' E 001°00'1021.8 200 / 111010.0 5.4 17.014.018.0
2014-Nov-26 22:33N 40°25' E 001°08'1211.6
2014-Nov-26 21:33N 40°33' E 001°19'1212.1
2014-Nov-26 20:34N 40°41' E 001°31'1211.7
2014-Nov-26 19:33N 40°49' E 001°43'1211.8
2014-Nov-26 18:33N 40°57' E 001°54'1211.7
2014-Nov-26 17:33N 41°06' E 002°05'1211.8
2014-Nov-26 16:29N 41°17' E 002°10'3 0.3
2014-Nov-26 06:22N 41°21' E 002°10'7 8.5
2014-Nov-26 05:32N 41°17' E 002°18'3115.3
2014-Nov-26 03:31N 41°28' E 002°56'4 6.7
2014-Nov-26 03:00N 41°30' E 003°00'1125.8 350 / 31013.0 17.0 19.0
2014-Nov-26 02:33N 41°36' E 003°13'4 7.0
2014-Nov-26 02:00N 41°36' E 003°18'1227.6 300 / 31014.0 5.4 17.014.018.0
2014-Nov-26 01:33N 41°45' E 003°29'610.8
2014-Nov-26 01:00N 41°48' E 003°36'921.3 250 / 61014.0 5.4 18.015.018.0
2014-Nov-26 00:33N 41°53' E 003°46'2 2.7
2014-Nov-26 00:00N 41°54' E 003°48'1429.6 240 / 81015.0 5.4 18.015.018.0
2014-Nov-25 23:32N 42°02' E 004°03'1514.9
2014-Nov-25 22:33N 42°10' E 004°19'4 7.3
2014-Nov-25 22:00N 42°12' E 004°24'1125.4 230 / 31016.0 2.2 17.0 18.0
2014-Nov-25 21:33N 42°19' E 004°36'1515.1
2014-Nov-25 20:33N 42°27' E 004°53'3614.8
2014-Nov-25 18:09N 42°48' E 005°32'318.0
2014-Nov-25 18:00N 42°48' E 005°36'715.8 190 / 181017.0 18.0 18.0
2014-Nov-25 17:33N 42°53' E 005°42'5 8.0
2014-Nov-25 17:00N 42°54' E 005°48'1126.5 180 / 201017.0 16.7 18.0
2014-Nov-25 16:34N 43°03' E 005°58'5 4.9
2014-Nov-25 15:33N 43°06' E 005°54'0 0.0
2014-Nov-25 14:32N 43°06' E 005°54'0 0.0
2014-Nov-25 13:32N 43°06' E 005°54'0 0.0
2014-Nov-25 12:31N 43°06' E 005°54'0 0.0
2014-Nov-25 11:31N 43°06' E 005°54'0 0.0
2014-Nov-25 10:34N 43°06' E 005°54'0 0.0
2014-Nov-25 09:33N 43°06' E 005°54'0 0.0
2014-Nov-25 08:33N 43°06' E 005°54'0 0.0
2014-Nov-25 07:32N 43°06' E 005°54'0 0.0
2014-Nov-25 06:33N 43°06' E 005°54'4 4.4
2014-Nov-25 05:33N 43°04' E 005°59'1111.0
2014-Nov-25 04:34N 42°53' E 006°02'6 9.9
2014-Nov-25 04:00N 42°48' E 006°00'716.7 120 / 181018.0 17.0 18.0
2014-Nov-25 03:33N 42°43' E 006°07'1110.5
2014-Nov-25 02:33N 42°34' E 006°14'5 8.5
2014-Nov-25 02:00N 42°30' E 006°18'918.4 110 / 101018.0 5.4 18.015.018.0
2014-Nov-25 01:30N 42°33' E 006°30'3 5.2
2014-Nov-25 01:00N 42°30' E 006°30'1120.7 120 / 111019.0 5.4 18.015.018.0
2014-Nov-25 00:27N 42°32' E 006°45'3 5.8
2014-Nov-25 00:00N 42°30' E 006°48'1316.6 120 / 121019.0 5.4 18.015.018.0
2014-Nov-24 23:13N 42°40' E 006°58'523.6
2014-Nov-24 23:00N 42°36' E 006°54'1228.7 100 / 151020.0 5.4 18.015.018.0
2014-Nov-24 22:33N 42°46' E 007°04'6241102.0
2014-Nov-24 22:00N 42°48' W 007°06'6311456.1 090 / 151020.0 5.4 19.0
2014-Nov-24 21:34N 42°54' E 007°14'1210.3
2014-Nov-24 20:24N 43°03' E 007°25'22 9.5
2014-Nov-24 18:04N 43°24' E 007°33'510.4
2014-Nov-24 17:33N 43°29' E 007°32'2 3.0
2014-Nov-24 17:00N 43°30' E 007°30'1022.2 070 / 251020.0 17.0 20.0
2014-Nov-24 16:33N 43°40' E 007°28'5 0.5
2014-Nov-24 06:18N 43°44' E 007°26'5 6.4
2014-Nov-24 05:33N 43°44' E 007°32'1610.1
2014-Nov-24 04:00N 43°42' E 007°54'1912.1 060 / 281022.0 17.0 19.0
2014-Nov-24 02:26N 43°40' E 008°20'1011.1
2014-Nov-24 01:33N 43°38' E 008°33'1119.4
2014-Nov-24 01:00N 43°36' E 008°48'2 3.7 080 / 191023.0 5.4 19.016.019.0
2014-Nov-24 00:33N 43°38' E 008°48'4 7.8
2014-Nov-24 00:00N 43°36' E 008°54'614.6 110 / 111024.0 5.4 21.018.019.0
2014-Nov-23 23:33N 43°37' E 009°03'1010.4
2014-Nov-23 22:33N 43°36' E 009°17'813.5
2014-Nov-23 22:00N 43°30' E 009°24'715.5 120 / 131024.0 21.6 20.0
2014-Nov-23 21:33N 43°34' E 009°31'1010.3
2014-Nov-23 20:33N 43°33' E 009°45'1110.5
2014-Nov-23 19:33N 43°31' E 009°59'1010.4
2014-Nov-23 18:33N 43°31' E 010°14'3 3.4
2014-Nov-23 17:33N 43°33' E 010°18'0 0.0
2014-Nov-23 16:33N 43°33' E 010°18'0 0.0
2014-Nov-23 15:32N 43°33' E 010°18'0 0.0
2014-Nov-23 14:29N 43°33' E 010°18'0 0.0
2014-Nov-23 13:32N 43°33' E 010°18'0 0.0
2014-Nov-23 12:31N 43°33' E 010°18'0 0.0
2014-Nov-23 11:31N 43°33' E 010°18'0 0.0
2014-Nov-23 10:33N 43°33' E 010°18'0 0.0
2014-Nov-23 09:33N 43°33' E 010°18'0 0.0
2014-Nov-23 08:32N 43°33' E 010°18'0 0.0
2014-Nov-23 07:32N 43°33' E 010°18'0 0.0
2014-Nov-23 06:31N 43°33' E 010°18'0 0.0
2014-Nov-23 05:33N 43°33' E 010°18'6 6.5
2014-Nov-23 04:34N 43°28' E 010°13'1212.2
2014-Nov-23 03:33N 43°16' E 010°08'4 7.7
2014-Nov-23 03:00N 43°12' E 010°06'717.2 130 / 271023.0 17.0 20.0
2014-Nov-23 02:33N 43°05' E 010°05'1119.6
2014-Nov-23 02:00N 42°54' E 010°00'7 7.4 140 / 201023.0 5.4 18.015.020.0
2014-Nov-23 01:00N 42°48' E 009°54'2512.6 150 / 191023.0 5.4 20.017.020.0
2014-Nov-22 23:00N 42°30' E 010°18'7615.2 160 / 151023.0 5.4 19.016.020.0
2014-Nov-22 18:00N 41°54' E 011°48'15 0.9 170 / 171023.0 17.0 20.0
2014-Nov-22 01:00N 41°42' E 012°00'7516.4 080 / 141023.0 5.4 16.013.020.0
2014-Nov-21 20:24N 40°57' E 013°20'1416.0
2014-Nov-21 19:33N 40°48' E 013°34'1616.0
2014-Nov-21 18:33N 40°39' E 013°51'713.1
2014-Nov-21 18:00N 40°36' E 014°00'1124.5 330 / 121022.0 16.0 19.0
2014-Nov-21 17:33N 40°43' E 014°10'8 0.7
2014-Nov-21 06:20N 40°50' E 014°16'7 9.5
2014-Nov-21 05:33N 40°43' E 014°17'1716.1
2014-Nov-21 04:32N 40°27' E 014°22'2214.1
2014-Nov-21 03:00N 40°06' E 014°30'2020.2 060 / 121022.0 16.6 20.0
2014-Nov-21 02:00N 39°48' E 014°42'1312.9 080 / 41022.0 5.4 17.014.021.0
2014-Nov-21 01:00N 39°36' E 014°48'2020.2 050 / 121022.0 5.4 17.014.021.0
2014-Nov-21 00:00N 39°18' E 015°00'7214.7 090 / 41022.0 5.4 17.014.021.0
2014-Nov-20 19:03N 38°11' E 015°37'1016.5
2014-Nov-20 18:26N 38°01' E 015°35'1615.9
2014-Nov-20 17:27N 37°50' E 015°49'4016.1
2014-Nov-20 15:00N 37°36' E 016°36'16916.9 030 / 101022.0 17.0 21.0
2014-Nov-20 05:00N 36°48' E 020°00'5016.5 030 / 331019.0 18.0 22.0
2014-Nov-20 02:00N 36°36' E 021°00'2020.2 360 / 241018.0 5.4 0.518.015.022.0
2014-Nov-20 01:00N 36°30' E 021°24'1414.5 350 / 231018.0 5.4 19.016.022.0
2014-Nov-20 00:00N 36°30' E 021°42'4916.2 340 / 241018.0 5.4 19.016.022.0
2014-Nov-19 21:00N 36°24' E 022°42'4315.6 280 / 251017.0 20.2 20.0
2014-Nov-19 18:16N 36°45' E 023°28'1515.9
2014-Nov-19 17:18N 36°57' E 023°40'411.4
2014-Nov-19 17:00N 36°54' E 023°42'1527.5 200 / 281016.0 20.0 16.0
2014-Nov-19 16:27N 37°07' E 023°51'1415.8
2014-Nov-19 15:33N 37°17' E 024°04'2 3.7
2014-Nov-19 15:00N 37°18' E 024°06'1431.2 200 / 291016.0 20.0 16.0
2014-Nov-19 14:33N 37°28' E 024°17'6 9.8
2014-Nov-19 14:00N 37°30' E 024°24'1226.9 200 / 291016.0 19.0 16.0
2014-Nov-19 13:33N 37°41' E 024°28'1616.5
2014-Nov-19 12:33N 37°56' E 024°36'11916.1
2014-Nov-19 05:10N 39°44' E 025°41'950.3
2014-Nov-19 05:00N 39°36' E 025°36'7314.6 170 / 321018.0 19.0 17.0
2014-Nov-19 00:00N 40°24' E 026°48'2221.8 080 / 81018.0 5.4 16.013.016.0
2014-Nov-18 23:00N 40°36' E 027°12'1514.9 350 / 41019.0 5.4 16.013.016.0
2014-Nov-18 22:00N 40°42' E 027°30'   180 / 31019.0 5.4 17.014.016.0

Dump ship's entire track history